sensor_id;sensor_type;location;lat;lon;timestamp;P1;durP1;ratioP1;P2;durP2;ratioP2
45328;SDS011;31063;48.356;10.896;2022-10-16T00:01:46;6.60;;;3.43;;
45328;SDS011;31063;48.356;10.896;2022-10-16T00:04:12;5.37;;;3.03;;
45328;SDS011;31063;48.356;10.896;2022-10-16T00:06:38;4.75;;;2.47;;
45328;SDS011;31063;48.356;10.896;2022-10-16T00:09:04;3.85;;;2.90;;
45328;SDS011;31063;48.356;10.896;2022-10-16T00:11:31;4.63;;;2.80;;
45328;SDS011;31063;48.356;10.896;2022-10-16T00:13:59;5.05;;;3.00;;
45328;SDS011;31063;48.356;10.896;2022-10-16T00:16:27;3.85;;;2.80;;
45328;SDS011;31063;48.356;10.896;2022-10-16T00:18:53;6.15;;;2.85;;
45328;SDS011;31063;48.356;10.896;2022-10-16T00:21:20;4.97;;;3.15;;
45328;SDS011;31063;48.356;10.896;2022-10-16T00:23:50;3.90;;;2.90;;
45328;SDS011;31063;48.356;10.896;2022-10-16T00:26:17;3.47;;;2.58;;
45328;SDS011;31063;48.356;10.896;2022-10-16T00:28:47;3.97;;;2.80;;
45328;SDS011;31063;48.356;10.896;2022-10-16T00:31:14;3.42;;;2.50;;
45328;SDS011;31063;48.356;10.896;2022-10-16T00:33:41;2.90;;;2.58;;
45328;SDS011;31063;48.356;10.896;2022-10-16T00:36:07;3.10;;;2.10;;
45328;SDS011;31063;48.356;10.896;2022-10-16T00:38:35;5.18;;;2.20;;
45328;SDS011;31063;48.356;10.896;2022-10-16T00:41:01;3.75;;;2.55;;
45328;SDS011;31063;48.356;10.896;2022-10-16T00:43:37;6.60;;;2.60;;
45328;SDS011;31063;48.356;10.896;2022-10-16T00:46:19;5.82;;;2.60;;
45328;SDS011;31063;48.356;10.896;2022-10-16T00:48:59;7.03;;;2.60;;
45328;SDS011;31063;48.356;10.896;2022-10-16T00:51:28;5.68;;;2.20;;
45328;SDS011;31063;48.356;10.896;2022-10-16T00:53:59;2.63;;;2.33;;
45328;SDS011;31063;48.356;10.896;2022-10-16T00:56:27;3.08;;;2.33;;
45328;SDS011;31063;48.356;10.896;2022-10-16T00:58:53;4.67;;;2.50;;
45328;SDS011;31063;48.356;10.896;2022-10-16T01:01:18;6.67;;;2.40;;
45328;SDS011;31063;48.356;10.896;2022-10-16T01:03:44;3.47;;;2.17;;
45328;SDS011;31063;48.356;10.896;2022-10-16T01:06:21;5.35;;;2.30;;
45328;SDS011;31063;48.356;10.896;2022-10-16T01:14:26;2.47;;;1.92;;
45328;SDS011;31063;48.356;10.896;2022-10-16T01:17:06;2.75;;;2.38;;
45328;SDS011;31063;48.356;10.896;2022-10-16T01:22:16;6.97;;;2.70;;
45328;SDS011;31063;48.356;10.896;2022-10-16T01:24:44;5.20;;;2.60;;
45328;SDS011;31063;48.356;10.896;2022-10-16T01:27:14;4.22;;;2.50;;
45328;SDS011;31063;48.356;10.896;2022-10-16T01:29:48;3.28;;;2.42;;
45328;SDS011;31063;48.356;10.896;2022-10-16T01:32:29;4.00;;;2.35;;
45328;SDS011;31063;48.356;10.896;2022-10-16T01:37:44;4.00;;;2.70;;
45328;SDS011;31063;48.356;10.896;2022-10-16T01:40:16;5.97;;;2.42;;
45328;SDS011;31063;48.356;10.896;2022-10-16T01:42:46;4.10;;;2.38;;
45328;SDS011;31063;48.356;10.896;2022-10-16T01:45:16;5.97;;;2.55;;
45328;SDS011;31063;48.356;10.896;2022-10-16T01:47:45;4.43;;;2.35;;
45328;SDS011;31063;48.356;10.896;2022-10-16T01:50:12;5.55;;;2.53;;
45328;SDS011;31063;48.356;10.896;2022-10-16T01:52:41;5.65;;;2.70;;
45328;SDS011;31063;48.356;10.896;2022-10-16T01:55:12;8.35;;;2.30;;
45328;SDS011;31063;48.356;10.896;2022-10-16T01:57:43;6.05;;;2.58;;
45328;SDS011;31063;48.356;10.896;2022-10-16T02:00:12;4.78;;;2.83;;
45328;SDS011;31063;48.356;10.896;2022-10-16T02:02:40;3.60;;;2.45;;
45328;SDS011;31063;48.356;10.896;2022-10-16T02:07:53;5.13;;;2.55;;
45328;SDS011;31063;48.356;10.896;2022-10-16T02:10:19;4.53;;;3.22;;
45328;SDS011;31063;48.356;10.896;2022-10-16T02:12:48;3.78;;;2.67;;
45328;SDS011;31063;48.356;10.896;2022-10-16T02:15:19;2.97;;;2.22;;
45328;SDS011;31063;48.356;10.896;2022-10-16T02:17:44;3.80;;;2.20;;
45328;SDS011;31063;48.356;10.896;2022-10-16T02:20:10;4.77;;;2.73;;
45328;SDS011;31063;48.356;10.896;2022-10-16T02:22:38;3.92;;;2.83;;
45328;SDS011;31063;48.356;10.896;2022-10-16T02:25:21;5.28;;;2.70;;
45328;SDS011;31063;48.356;10.896;2022-10-16T02:30:41;3.78;;;2.45;;
45328;SDS011;31063;48.356;10.896;2022-10-16T02:33:13;3.75;;;2.92;;
45328;SDS011;31063;48.356;10.896;2022-10-16T02:35:41;8.60;;;2.90;;
45328;SDS011;31063;48.356;10.896;2022-10-16T02:38:08;4.00;;;2.22;;
45328;SDS011;31063;48.356;10.896;2022-10-16T02:40:34;3.13;;;2.28;;
45328;SDS011;31063;48.356;10.896;2022-10-16T02:43:02;3.75;;;2.58;;
45328;SDS011;31063;48.356;10.896;2022-10-16T02:45:29;4.68;;;2.40;;
45328;SDS011;31063;48.356;10.896;2022-10-16T02:47:55;4.20;;;2.40;;
45328;SDS011;31063;48.356;10.896;2022-10-16T02:50:20;6.00;;;1.93;;
45328;SDS011;31063;48.356;10.896;2022-10-16T02:52:47;8.45;;;2.55;;
45328;SDS011;31063;48.356;10.896;2022-10-16T02:55:12;4.00;;;2.13;;
45328;SDS011;31063;48.356;10.896;2022-10-16T02:57:38;5.67;;;2.17;;
45328;SDS011;31063;48.356;10.896;2022-10-16T03:02:31;3.78;;;2.13;;
45328;SDS011;31063;48.356;10.896;2022-10-16T03:04:57;3.67;;;2.33;;
45328;SDS011;31063;48.356;10.896;2022-10-16T03:07:23;3.53;;;1.70;;
45328;SDS011;31063;48.356;10.896;2022-10-16T03:09:48;4.50;;;2.17;;
45328;SDS011;31063;48.356;10.896;2022-10-16T03:12:14;3.37;;;1.90;;
45328;SDS011;31063;48.356;10.896;2022-10-16T03:14:39;4.53;;;2.10;;
45328;SDS011;31063;48.356;10.896;2022-10-16T03:17:05;5.20;;;2.20;;
45328;SDS011;31063;48.356;10.896;2022-10-16T03:19:31;5.28;;;1.95;;
45328;SDS011;31063;48.356;10.896;2022-10-16T03:21:56;2.70;;;2.20;;
45328;SDS011;31063;48.356;10.896;2022-10-16T03:24:22;5.87;;;2.07;;
45328;SDS011;31063;48.356;10.896;2022-10-16T03:26:48;7.40;;;2.00;;
45328;SDS011;31063;48.356;10.896;2022-10-16T03:29:13;5.03;;;2.00;;
45328;SDS011;31063;48.356;10.896;2022-10-16T03:31:39;3.60;;;1.93;;
45328;SDS011;31063;48.356;10.896;2022-10-16T03:34:05;3.72;;;2.17;;
45328;SDS011;31063;48.356;10.896;2022-10-16T03:36:31;5.20;;;1.93;;
45328;SDS011;31063;48.356;10.896;2022-10-16T03:38:56;4.90;;;1.97;;
45328;SDS011;31063;48.356;10.896;2022-10-16T03:41:22;3.47;;;2.07;;
45328;SDS011;31063;48.356;10.896;2022-10-16T03:43:47;3.53;;;2.10;;
45328;SDS011;31063;48.356;10.896;2022-10-16T03:46:13;2.63;;;2.00;;
45328;SDS011;31063;48.356;10.896;2022-10-16T03:48:38;4.63;;;2.10;;
45328;SDS011;31063;48.356;10.896;2022-10-16T03:51:05;4.10;;;1.88;;
45328;SDS011;31063;48.356;10.896;2022-10-16T03:53:30;2.97;;;2.10;;
45328;SDS011;31063;48.356;10.896;2022-10-16T03:55:56;3.67;;;1.93;;
45328;SDS011;31063;48.356;10.896;2022-10-16T03:58:22;6.17;;;1.87;;
45328;SDS011;31063;48.356;10.896;2022-10-16T04:00:47;6.97;;;2.63;;
45328;SDS011;31063;48.356;10.896;2022-10-16T04:03:13;5.80;;;1.87;;
45328;SDS011;31063;48.356;10.896;2022-10-16T04:05:39;2.60;;;1.70;;
45328;SDS011;31063;48.356;10.896;2022-10-16T04:08:04;4.43;;;1.97;;
45328;SDS011;31063;48.356;10.896;2022-10-16T04:10:30;5.20;;;2.20;;
45328;SDS011;31063;48.356;10.896;2022-10-16T04:12:56;2.63;;;2.00;;
45328;SDS011;31063;48.356;10.896;2022-10-16T04:15:25;7.80;;;1.90;;
45328;SDS011;31063;48.356;10.896;2022-10-16T04:17:51;3.15;;;1.92;;
45328;SDS011;31063;48.356;10.896;2022-10-16T04:20:17;5.85;;;1.73;;
45328;SDS011;31063;48.356;10.896;2022-10-16T04:22:43;3.70;;;1.73;;
45328;SDS011;31063;48.356;10.896;2022-10-16T04:25:09;3.78;;;1.98;;
45328;SDS011;31063;48.356;10.896;2022-10-16T04:27:36;3.97;;;1.90;;
45328;SDS011;31063;48.356;10.896;2022-10-16T04:30:02;4.70;;;1.90;;
45328;SDS011;31063;48.356;10.896;2022-10-16T04:32:28;4.72;;;2.25;;
45328;SDS011;31063;48.356;10.896;2022-10-16T04:34:54;4.00;;;2.00;;
45328;SDS011;31063;48.356;10.896;2022-10-16T04:37:23;6.03;;;2.20;;
45328;SDS011;31063;48.356;10.896;2022-10-16T04:39:50;3.25;;;2.17;;
45328;SDS011;31063;48.356;10.896;2022-10-16T04:42:15;5.53;;;2.10;;
45328;SDS011;31063;48.356;10.896;2022-10-16T04:44:41;4.40;;;2.37;;
45328;SDS011;31063;48.356;10.896;2022-10-16T04:47:07;6.00;;;2.37;;
45328;SDS011;31063;48.356;10.896;2022-10-16T04:49:33;3.85;;;1.98;;
45328;SDS011;31063;48.356;10.896;2022-10-16T04:51:58;3.97;;;2.10;;
45328;SDS011;31063;48.356;10.896;2022-10-16T04:54:24;2.93;;;2.03;;
45328;SDS011;31063;48.356;10.896;2022-10-16T04:56:49;3.43;;;2.20;;
45328;SDS011;31063;48.356;10.896;2022-10-16T04:59:17;3.30;;;1.90;;
45328;SDS011;31063;48.356;10.896;2022-10-16T05:01:44;2.35;;;1.90;;
45328;SDS011;31063;48.356;10.896;2022-10-16T05:04:10;4.25;;;2.10;;
45328;SDS011;31063;48.356;10.896;2022-10-16T05:06:36;7.05;;;2.00;;
45328;SDS011;31063;48.356;10.896;2022-10-16T05:09:03;3.28;;;2.40;;
45328;SDS011;31063;48.356;10.896;2022-10-16T05:11:33;3.72;;;2.35;;
45328;SDS011;31063;48.356;10.896;2022-10-16T05:13:59;5.10;;;2.10;;
45328;SDS011;31063;48.356;10.896;2022-10-16T05:16:25;4.70;;;2.10;;
45328;SDS011;31063;48.356;10.896;2022-10-16T05:18:51;3.17;;;1.92;;
45328;SDS011;31063;48.356;10.896;2022-10-16T05:21:17;3.80;;;1.95;;
45328;SDS011;31063;48.356;10.896;2022-10-16T05:23:43;3.42;;;1.70;;
45328;SDS011;31063;48.356;10.896;2022-10-16T05:26:09;3.67;;;1.67;;
45328;SDS011;31063;48.356;10.896;2022-10-16T05:28:34;6.27;;;1.80;;
45328;SDS011;31063;48.356;10.896;2022-10-16T05:31:04;5.78;;;2.08;;
45328;SDS011;31063;48.356;10.896;2022-10-16T05:33:30;2.42;;;1.73;;
45328;SDS011;31063;48.356;10.896;2022-10-16T05:35:56;4.67;;;1.93;;
45328;SDS011;31063;48.356;10.896;2022-10-16T05:38:22;3.47;;;1.80;;
45328;SDS011;31063;48.356;10.896;2022-10-16T05:40:51;2.10;;;1.70;;
45328;SDS011;31063;48.356;10.896;2022-10-16T05:43:21;2.03;;;1.52;;
45328;SDS011;31063;48.356;10.896;2022-10-16T05:46:05;3.85;;;1.88;;
45328;SDS011;31063;48.356;10.896;2022-10-16T05:48:31;5.05;;;1.90;;
45328;SDS011;31063;48.356;10.896;2022-10-16T05:51:05;3.00;;;1.67;;
45328;SDS011;31063;48.356;10.896;2022-10-16T05:53:33;6.85;;;2.00;;
45328;SDS011;31063;48.356;10.896;2022-10-16T05:56:00;4.85;;;1.73;;
45328;SDS011;31063;48.356;10.896;2022-10-16T05:58:31;2.05;;;1.67;;
45328;SDS011;31063;48.356;10.896;2022-10-16T06:01:04;2.83;;;1.65;;
45328;SDS011;31063;48.356;10.896;2022-10-16T06:03:32;3.85;;;1.70;;
45328;SDS011;31063;48.356;10.896;2022-10-16T06:05:58;3.38;;;2.35;;
45328;SDS011;31063;48.356;10.896;2022-10-16T06:08:24;3.45;;;2.17;;
45328;SDS011;31063;48.356;10.896;2022-10-16T06:11:00;3.70;;;1.63;;
45328;SDS011;31063;48.356;10.896;2022-10-16T06:13:29;3.25;;;1.70;;
45328;SDS011;31063;48.356;10.896;2022-10-16T06:15:56;4.63;;;1.60;;
45328;SDS011;31063;48.356;10.896;2022-10-16T06:18:23;3.90;;;1.60;;
45328;SDS011;31063;48.356;10.896;2022-10-16T06:20:49;6.03;;;1.80;;
45328;SDS011;31063;48.356;10.896;2022-10-16T06:23:15;4.63;;;1.90;;
45328;SDS011;31063;48.356;10.896;2022-10-16T06:25:40;6.33;;;1.60;;
45328;SDS011;31063;48.356;10.896;2022-10-16T06:28:06;2.20;;;1.80;;
45328;SDS011;31063;48.356;10.896;2022-10-16T06:30:32;3.67;;;1.50;;
45328;SDS011;31063;48.356;10.896;2022-10-16T06:32:57;3.37;;;1.63;;
45328;SDS011;31063;48.356;10.896;2022-10-16T06:35:23;3.20;;;1.70;;
45328;SDS011;31063;48.356;10.896;2022-10-16T06:37:48;5.80;;;2.50;;
45328;SDS011;31063;48.356;10.896;2022-10-16T06:40:14;3.22;;;1.90;;
45328;SDS011;31063;48.356;10.896;2022-10-16T06:42:40;3.20;;;1.87;;
45328;SDS011;31063;48.356;10.896;2022-10-16T06:45:06;4.13;;;1.92;;
45328;SDS011;31063;48.356;10.896;2022-10-16T06:47:32;5.05;;;2.10;;
45328;SDS011;31063;48.356;10.896;2022-10-16T06:49:58;5.73;;;2.27;;
45328;SDS011;31063;48.356;10.896;2022-10-16T06:52:24;1.70;;;1.60;;
45328;SDS011;31063;48.356;10.896;2022-10-16T06:54:49;2.87;;;1.60;;
45328;SDS011;31063;48.356;10.896;2022-10-16T06:57:15;2.13;;;1.90;;
45328;SDS011;31063;48.356;10.896;2022-10-16T06:59:41;5.22;;;2.00;;
45328;SDS011;31063;48.356;10.896;2022-10-16T07:02:07;3.40;;;1.73;;
45328;SDS011;31063;48.356;10.896;2022-10-16T07:04:35;3.75;;;1.80;;
45328;SDS011;31063;48.356;10.896;2022-10-16T07:07:01;3.13;;;2.38;;
45328;SDS011;31063;48.356;10.896;2022-10-16T07:09:27;4.03;;;1.60;;
45328;SDS011;31063;48.356;10.896;2022-10-16T07:11:52;3.53;;;1.30;;
45328;SDS011;31063;48.356;10.896;2022-10-16T07:14:19;6.38;;;1.60;;
45328;SDS011;31063;48.356;10.896;2022-10-16T07:16:46;4.05;;;1.65;;
45328;SDS011;31063;48.356;10.896;2022-10-16T07:19:12;2.17;;;1.50;;
45328;SDS011;31063;48.356;10.896;2022-10-16T07:21:40;5.97;;;1.52;;
45328;SDS011;31063;48.356;10.896;2022-10-16T07:24:07;3.92;;;1.70;;
45328;SDS011;31063;48.356;10.896;2022-10-16T07:26:38;3.90;;;1.70;;
45328;SDS011;31063;48.356;10.896;2022-10-16T07:29:14;3.05;;;1.50;;
45328;SDS011;31063;48.356;10.896;2022-10-16T07:31:42;2.58;;;1.77;;
45328;SDS011;31063;48.356;10.896;2022-10-16T07:36:34;4.38;;;1.40;;
45328;SDS011;31063;48.356;10.896;2022-10-16T07:39:00;4.70;;;1.67;;
45328;SDS011;31063;48.356;10.896;2022-10-16T07:41:26;1.70;;;1.20;;
45328;SDS011;31063;48.356;10.896;2022-10-16T07:46:19;3.37;;;1.40;;
45328;SDS011;31063;48.356;10.896;2022-10-16T07:48:46;1.65;;;1.20;;
45328;SDS011;31063;48.356;10.896;2022-10-16T07:51:20;4.38;;;1.23;;
45328;SDS011;31063;48.356;10.896;2022-10-16T07:53:47;1.33;;;1.10;;
45328;SDS011;31063;48.356;10.896;2022-10-16T07:56:13;2.63;;;1.20;;
45328;SDS011;31063;48.356;10.896;2022-10-16T07:58:40;2.15;;;1.33;;
45328;SDS011;31063;48.356;10.896;2022-10-16T08:01:10;3.50;;;1.83;;
45328;SDS011;31063;48.356;10.896;2022-10-16T08:03:36;1.60;;;1.42;;
45328;SDS011;31063;48.356;10.896;2022-10-16T08:06:02;3.57;;;1.60;;
45328;SDS011;31063;48.356;10.896;2022-10-16T08:08:29;2.65;;;1.75;;
45328;SDS011;31063;48.356;10.896;2022-10-16T08:10:54;8.70;;;1.60;;
45328;SDS011;31063;48.356;10.896;2022-10-16T08:13:20;5.30;;;1.90;;
45328;SDS011;31063;48.356;10.896;2022-10-16T08:15:46;2.80;;;1.48;;
45328;SDS011;31063;48.356;10.896;2022-10-16T08:18:13;2.22;;;1.35;;
45328;SDS011;31063;48.356;10.896;2022-10-16T08:20:39;2.85;;;1.33;;
45328;SDS011;31063;48.356;10.896;2022-10-16T08:23:06;2.25;;;1.70;;
45328;SDS011;31063;48.356;10.896;2022-10-16T08:25:33;3.08;;;1.45;;
45328;SDS011;31063;48.356;10.896;2022-10-16T08:28:03;2.28;;;1.40;;
45328;SDS011;31063;48.356;10.896;2022-10-16T08:30:33;2.92;;;1.70;;
45328;SDS011;31063;48.356;10.896;2022-10-16T08:32:59;2.47;;;1.52;;
45328;SDS011;31063;48.356;10.896;2022-10-16T08:35:25;4.03;;;1.52;;
45328;SDS011;31063;48.356;10.896;2022-10-16T08:37:50;2.37;;;1.50;;
45328;SDS011;31063;48.356;10.896;2022-10-16T08:40:18;4.40;;;1.47;;
45328;SDS011;31063;48.356;10.896;2022-10-16T08:50:38;3.47;;;1.40;;
45328;SDS011;31063;48.356;10.896;2022-10-16T08:53:05;2.72;;;1.13;;
45328;SDS011;31063;48.356;10.896;2022-10-16T08:55:41;1.70;;;1.30;;
45328;SDS011;31063;48.356;10.896;2022-10-16T08:58:14;1.92;;;1.30;;
45328;SDS011;31063;48.356;10.896;2022-10-16T09:00:42;1.98;;;1.38;;
45328;SDS011;31063;48.356;10.896;2022-10-16T09:03:22;2.60;;;1.30;;
45328;SDS011;31063;48.356;10.896;2022-10-16T09:08:29;2.08;;;1.00;;
45328;SDS011;31063;48.356;10.896;2022-10-16T09:10:57;3.13;;;1.02;;
45328;SDS011;31063;48.356;10.896;2022-10-16T09:16:51;1.85;;;1.20;;
45328;SDS011;31063;48.356;10.896;2022-10-16T09:21:54;4.25;;;1.30;;
45328;SDS011;31063;48.356;10.896;2022-10-16T09:24:22;6.13;;;1.00;;
45328;SDS011;31063;48.356;10.896;2022-10-16T09:26:50;1.25;;;1.13;;
45328;SDS011;31063;48.356;10.896;2022-10-16T09:29:17;1.98;;;1.08;;
45328;SDS011;31063;48.356;10.896;2022-10-16T09:31:46;1.00;;;0.90;;
45328;SDS011;31063;48.356;10.896;2022-10-16T09:34:24;3.08;;;0.90;;
45328;SDS011;31063;48.356;10.896;2022-10-16T09:37:03;1.80;;;1.10;;
45328;SDS011;31063;48.356;10.896;2022-10-16T09:39:44;2.03;;;0.77;;
45328;SDS011;31063;48.356;10.896;2022-10-16T09:42:14;4.55;;;1.02;;
45328;SDS011;31063;48.356;10.896;2022-10-16T09:44:47;1.48;;;0.95;;
45328;SDS011;31063;48.356;10.896;2022-10-16T09:47:23;3.45;;;0.90;;
45328;SDS011;31063;48.356;10.896;2022-10-16T09:49:58;1.65;;;0.80;;
45328;SDS011;31063;48.356;10.896;2022-10-16T09:52:27;3.60;;;1.00;;
45328;SDS011;31063;48.356;10.896;2022-10-16T09:54:55;1.38;;;1.00;;
45328;SDS011;31063;48.356;10.896;2022-10-16T09:57:26;0.75;;;0.73;;
45328;SDS011;31063;48.356;10.896;2022-10-16T09:59:53;1.48;;;0.93;;
45328;SDS011;31063;48.356;10.896;2022-10-16T10:02:36;1.20;;;0.90;;
45328;SDS011;31063;48.356;10.896;2022-10-16T10:05:04;4.63;;;0.85;;
45328;SDS011;31063;48.356;10.896;2022-10-16T10:07:37;3.28;;;1.30;;
45328;SDS011;31063;48.356;10.896;2022-10-16T10:10:18;5.30;;;1.10;;
45328;SDS011;31063;48.356;10.896;2022-10-16T10:12:46;1.70;;;0.90;;
45328;SDS011;31063;48.356;10.896;2022-10-16T10:15:12;4.00;;;1.10;;
45328;SDS011;31063;48.356;10.896;2022-10-16T10:17:46;2.97;;;1.00;;
45328;SDS011;31063;48.356;10.896;2022-10-16T10:22:54;3.22;;;1.08;;
45328;SDS011;31063;48.356;10.896;2022-10-16T10:28:39;3.83;;;1.20;;
45328;SDS011;31063;48.356;10.896;2022-10-16T10:34:04;2.38;;;1.23;;
45328;SDS011;31063;48.356;10.896;2022-10-16T10:36:53;2.78;;;1.27;;
45328;SDS011;31063;48.356;10.896;2022-10-16T10:39:29;1.88;;;1.00;;
45328;SDS011;31063;48.356;10.896;2022-10-16T10:47:32;2.92;;;1.10;;
45328;SDS011;31063;48.356;10.896;2022-10-16T10:52:54;2.13;;;1.30;;
45328;SDS011;31063;48.356;10.896;2022-10-16T10:58:08;3.33;;;1.10;;
45328;SDS011;31063;48.356;10.896;2022-10-16T11:14:08;3.50;;;1.80;;
45328;SDS011;31063;48.356;10.896;2022-10-16T11:16:58;4.90;;;1.77;;
45328;SDS011;31063;48.356;10.896;2022-10-16T11:25:04;2.35;;;0.93;;
45328;SDS011;31063;48.356;10.896;2022-10-16T11:30:50;1.38;;;0.80;;
45328;SDS011;31063;48.356;10.896;2022-10-16T11:33:25;2.95;;;1.00;;
45328;SDS011;31063;48.356;10.896;2022-10-16T11:49:40;3.80;;;0.90;;
45328;SDS011;31063;48.356;10.896;2022-10-16T11:52:25;2.50;;;0.80;;
45328;SDS011;31063;48.356;10.896;2022-10-16T11:55:01;1.33;;;0.73;;
45328;SDS011;31063;48.356;10.896;2022-10-16T11:57:50;1.38;;;0.90;;
45328;SDS011;31063;48.356;10.896;2022-10-16T12:00:21;3.08;;;0.73;;
45328;SDS011;31063;48.356;10.896;2022-10-16T12:03:10;2.55;;;0.90;;
45328;SDS011;31063;48.356;10.896;2022-10-16T12:08:31;1.90;;;0.90;;
45328;SDS011;31063;48.356;10.896;2022-10-16T12:11:06;1.02;;;0.90;;
45328;SDS011;31063;48.356;10.896;2022-10-16T12:13:36;2.80;;;1.00;;
45328;SDS011;31063;48.356;10.896;2022-10-16T12:18:38;1.38;;;0.80;;
45328;SDS011;31063;48.356;10.896;2022-10-16T12:21:09;3.80;;;0.90;;
45328;SDS011;31063;48.356;10.896;2022-10-16T12:26:23;1.95;;;0.85;;
45328;SDS011;31063;48.356;10.896;2022-10-16T12:29:12;2.60;;;0.70;;
45328;SDS011;31063;48.356;10.896;2022-10-16T12:31:59;2.35;;;0.90;;
45328;SDS011;31063;48.356;10.896;2022-10-16T12:34:27;3.08;;;0.90;;
45328;SDS011;31063;48.356;10.896;2022-10-16T12:37:24;1.10;;;0.80;;
45328;SDS011;31063;48.356;10.896;2022-10-16T12:39:50;1.13;;;0.68;;
45328;SDS011;31063;48.356;10.896;2022-10-16T12:44:52;2.63;;;0.75;;
45328;SDS011;31063;48.356;10.896;2022-10-16T12:47:20;1.77;;;0.82;;
45328;SDS011;31063;48.356;10.896;2022-10-16T12:49:50;2.40;;;0.70;;
45328;SDS011;31063;48.356;10.896;2022-10-16T12:54:59;1.90;;;0.70;;
45328;SDS011;31063;48.356;10.896;2022-10-16T13:14:36;1.95;;;0.55;;
45328;SDS011;31063;48.356;10.896;2022-10-16T13:19:41;0.68;;;0.68;;
45328;SDS011;31063;48.356;10.896;2022-10-16T13:22:33;2.15;;;0.80;;
45328;SDS011;31063;48.356;10.896;2022-10-16T13:25:33;1.15;;;0.70;;
45328;SDS011;31063;48.356;10.896;2022-10-16T13:28:10;1.40;;;0.80;;
45328;SDS011;31063;48.356;10.896;2022-10-16T13:33:17;5.45;;;0.80;;
45328;SDS011;31063;48.356;10.896;2022-10-16T13:36:04;2.92;;;0.90;;
45328;SDS011;31063;48.356;10.896;2022-10-16T13:40:58;2.92;;;0.88;;
45328;SDS011;31063;48.356;10.896;2022-10-16T13:43:27;2.75;;;0.80;;
45328;SDS011;31063;48.356;10.896;2022-10-16T13:46:03;1.83;;;1.02;;
45328;SDS011;31063;48.356;10.896;2022-10-16T13:48:30;0.63;;;0.60;;
45328;SDS011;31063;48.356;10.896;2022-10-16T13:53:29;1.10;;;0.70;;
45328;SDS011;31063;48.356;10.896;2022-10-16T13:55:56;3.00;;;0.80;;
45328;SDS011;31063;48.356;10.896;2022-10-16T13:58:22;1.60;;;0.70;;
45328;SDS011;31063;48.356;10.896;2022-10-16T14:00:55;1.55;;;0.70;;
45328;SDS011;31063;48.356;10.896;2022-10-16T14:03:22;1.20;;;0.80;;
45328;SDS011;31063;48.356;10.896;2022-10-16T14:05:53;2.03;;;0.60;;
45328;SDS011;31063;48.356;10.896;2022-10-16T14:08:31;1.25;;;0.85;;
45328;SDS011;31063;48.356;10.896;2022-10-16T14:10:57;0.70;;;0.70;;
45328;SDS011;31063;48.356;10.896;2022-10-16T14:13:30;2.88;;;0.65;;
45328;SDS011;31063;48.356;10.896;2022-10-16T14:16:21;0.93;;;0.60;;
45328;SDS011;31063;48.356;10.896;2022-10-16T14:19:02;1.20;;;0.80;;
45328;SDS011;31063;48.356;10.896;2022-10-16T14:21:31;1.00;;;0.70;;
45328;SDS011;31063;48.356;10.896;2022-10-16T14:23:58;1.00;;;0.80;;
45328;SDS011;31063;48.356;10.896;2022-10-16T14:26:26;1.83;;;0.75;;
45328;SDS011;31063;48.356;10.896;2022-10-16T14:29:10;1.55;;;0.90;;
45328;SDS011;31063;48.356;10.896;2022-10-16T14:31:37;1.90;;;0.63;;
45328;SDS011;31063;48.356;10.896;2022-10-16T14:34:05;4.40;;;0.80;;
45328;SDS011;31063;48.356;10.896;2022-10-16T14:36:52;0.65;;;0.60;;
45328;SDS011;31063;48.356;10.896;2022-10-16T14:39:22;0.80;;;0.60;;
45328;SDS011;31063;48.356;10.896;2022-10-16T14:41:51;1.35;;;0.70;;
45328;SDS011;31063;48.356;10.896;2022-10-16T14:44:17;5.15;;;1.30;;
45328;SDS011;31063;48.356;10.896;2022-10-16T14:46:45;1.40;;;1.10;;
45328;SDS011;31063;48.356;10.896;2022-10-16T14:51:37;1.25;;;1.15;;
45328;SDS011;31063;48.356;10.896;2022-10-16T14:54:07;2.05;;;0.93;;
45328;SDS011;31063;48.356;10.896;2022-10-16T14:59:37;0.93;;;0.82;;
45328;SDS011;31063;48.356;10.896;2022-10-16T15:02:25;2.42;;;1.15;;
45328;SDS011;31063;48.356;10.896;2022-10-16T15:05:20;1.75;;;1.60;;
45328;SDS011;31063;48.356;10.896;2022-10-16T15:10:25;3.10;;;1.20;;
45328;SDS011;31063;48.356;10.896;2022-10-16T15:12:52;2.60;;;1.20;;
45328;SDS011;31063;48.356;10.896;2022-10-16T15:18:04;2.97;;;1.08;;
45328;SDS011;31063;48.356;10.896;2022-10-16T15:20:31;3.70;;;1.20;;
45328;SDS011;31063;48.356;10.896;2022-10-16T15:23:13;1.67;;;1.10;;
45328;SDS011;31063;48.356;10.896;2022-10-16T15:25:44;10.10;;;1.25;;
45328;SDS011;31063;48.356;10.896;2022-10-16T15:28:17;1.98;;;1.27;;
45328;SDS011;31063;48.356;10.896;2022-10-16T15:30:43;1.38;;;1.27;;
45328;SDS011;31063;48.356;10.896;2022-10-16T15:33:13;3.25;;;1.20;;
45328;SDS011;31063;48.356;10.896;2022-10-16T15:35:41;3.28;;;1.23;;
45328;SDS011;31063;48.356;10.896;2022-10-16T15:38:09;3.83;;;1.20;;
45328;SDS011;31063;48.356;10.896;2022-10-16T15:40:37;3.28;;;1.42;;
45328;SDS011;31063;48.356;10.896;2022-10-16T15:43:03;2.30;;;1.50;;
45328;SDS011;31063;48.356;10.896;2022-10-16T15:45:28;2.45;;;1.48;;
45328;SDS011;31063;48.356;10.896;2022-10-16T15:47:54;5.33;;;1.73;;
45328;SDS011;31063;48.356;10.896;2022-10-16T15:50:20;1.98;;;1.50;;
45328;SDS011;31063;48.356;10.896;2022-10-16T15:52:45;3.08;;;1.67;;
45328;SDS011;31063;48.356;10.896;2022-10-16T15:55:12;5.03;;;1.42;;
45328;SDS011;31063;48.356;10.896;2022-10-16T15:57:38;2.28;;;1.38;;
45328;SDS011;31063;48.356;10.896;2022-10-16T16:00:09;3.08;;;1.60;;
45328;SDS011;31063;48.356;10.896;2022-10-16T16:02:38;2.10;;;1.60;;
45328;SDS011;31063;48.356;10.896;2022-10-16T16:05:04;2.72;;;1.60;;
45328;SDS011;31063;48.356;10.896;2022-10-16T16:07:33;2.80;;;1.85;;
45328;SDS011;31063;48.356;10.896;2022-10-16T16:10:00;4.75;;;2.50;;
45328;SDS011;31063;48.356;10.896;2022-10-16T16:12:26;4.78;;;2.60;;
45328;SDS011;31063;48.356;10.896;2022-10-16T16:14:52;2.45;;;2.00;;
45328;SDS011;31063;48.356;10.896;2022-10-16T16:17:17;2.23;;;1.83;;
45328;SDS011;31063;48.356;10.896;2022-10-16T16:19:43;3.67;;;2.27;;
45328;SDS011;31063;48.356;10.896;2022-10-16T16:22:10;2.63;;;2.00;;
45328;SDS011;31063;48.356;10.896;2022-10-16T16:24:35;4.63;;;2.20;;
45328;SDS011;31063;48.356;10.896;2022-10-16T16:27:01;3.92;;;1.85;;
45328;SDS011;31063;48.356;10.896;2022-10-16T16:29:27;4.93;;;2.40;;
45328;SDS011;31063;48.356;10.896;2022-10-16T16:31:52;5.70;;;2.43;;
45328;SDS011;31063;48.356;10.896;2022-10-16T16:34:22;4.13;;;2.35;;
45328;SDS011;31063;48.356;10.896;2022-10-16T16:36:49;2.42;;;2.20;;
45328;SDS011;31063;48.356;10.896;2022-10-16T16:39:15;3.90;;;2.33;;
45328;SDS011;31063;48.356;10.896;2022-10-16T16:41:41;3.83;;;2.97;;
45328;SDS011;31063;48.356;10.896;2022-10-16T16:44:07;5.43;;;2.78;;
45328;SDS011;31063;48.356;10.896;2022-10-16T16:46:35;5.63;;;3.00;;
45328;SDS011;31063;48.356;10.896;2022-10-16T16:49:02;3.35;;;2.38;;
45328;SDS011;31063;48.356;10.896;2022-10-16T16:51:28;4.45;;;2.30;;
45328;SDS011;31063;48.356;10.896;2022-10-16T16:56:21;3.40;;;2.33;;
45328;SDS011;31063;48.356;10.896;2022-10-16T16:58:48;2.72;;;2.20;;
45328;SDS011;31063;48.356;10.896;2022-10-16T17:01:14;5.05;;;2.25;;
45328;SDS011;31063;48.356;10.896;2022-10-16T17:03:41;4.80;;;2.80;;
45328;SDS011;31063;48.356;10.896;2022-10-16T17:06:11;5.80;;;2.53;;
45328;SDS011;31063;48.356;10.896;2022-10-16T17:08:39;6.53;;;2.50;;
45328;SDS011;31063;48.356;10.896;2022-10-16T17:11:05;6.18;;;3.00;;
45328;SDS011;31063;48.356;10.896;2022-10-16T17:13:32;4.40;;;2.58;;
45328;SDS011;31063;48.356;10.896;2022-10-16T17:16:01;8.02;;;3.20;;